Time;durP1;ratioP1;P1;durP2;ratioP2;P2;SDS_P1;SDS_P2;PMS_P1;PMS_P2;Temp;Humidity;BMP_temperature;BMP_pressure;BME280_temperature;BME280_humidity;BME280_pressure;Samples;Min_cycle;Max_cycle;Signal;HPM_P1;HPM_P2
2023/05/30 00:00:31;;;;;;;;;;;14.40;93.60;;;;;;5030433;28;20007;-74
2023/05/30 00:02:57;;;;;;;;;;;14.30;94.50;;;;;;5037860;28;19963;-74
2023/05/30 00:05:23;;;;;;;;;;;14.20;95.10;;;;;;5029472;28;19909;-75
2023/05/30 00:07:48;;;;;;;;;;;14.20;94.80;;;;;;5034587;28;19920;-75
2023/05/30 00:10:14;;;;;;;;;;;14.20;93.50;;;;;;5028132;28;19913;-75
2023/05/30 00:12:42;;;;;;;;;;;14.20;93.80;;;;;;5029955;28;19909;-75
2023/05/30 00:15:08;;;;;;;;;;;14.20;94.00;;;;;;5030463;28;20371;-75
2023/05/30 00:17:35;;;;;;;;;;;14.20;93.50;;;;;;5032896;28;19921;-75
2023/05/30 00:20:01;;;;;;;;;;;14.20;93.60;;;;;;5033458;28;19909;-75
2023/05/30 00:22:28;;;;;;;;;;;14.20;93.60;;;;;;5031883;28;20386;-74
2023/05/30 00:24:53;;;;;;;;;;;14.10;94.50;;;;;;5027694;28;19914;-74
2023/05/30 00:27:19;;;;;;;;;;;14.00;94.40;;;;;;5027011;28;19955;-75
2023/05/30 00:29:47;;;;;;;;;;;13.90;94.90;;;;;;5034970;28;19955;-75
2023/05/30 00:32:13;;;;;;;;;;;14.00;94.20;;;;;;5034090;28;19939;-75
2023/05/30 00:34:39;;;;;;;;;;;14.00;94.30;;;;;;5029787;28;20646;-74
2023/05/30 00:37:05;;;;;;;;;;;13.90;94.30;;;;;;5029722;28;19924;-75
2023/05/30 00:39:31;;;;;;;;;;;13.90;94.10;;;;;;5030642;28;20362;-75
2023/05/30 00:41:57;;;;;;;;;;;13.90;93.90;;;;;;5033119;28;20381;-75
2023/05/30 00:44:22;;;;;;;;;;;13.90;94.10;;;;;;5029945;28;19909;-74
2023/05/30 00:46:49;;;;;;;;;;;13.90;94.60;;;;;;5031743;28;19958;-75
2023/05/30 00:49:15;;;;;;;;;;;13.90;94.50;;;;;;5033764;28;19909;-74
2023/05/30 00:51:40;;;;;;;;;;;13.90;94.60;;;;;;5034598;28;19999;-74
2023/05/30 00:54:07;;;;;;;;;;;13.90;94.40;;;;;;5030695;28;19951;-75
2023/05/30 00:56:33;;;;;;;;;;;13.90;94.30;;;;;;5029725;28;19909;-75
2023/05/30 00:58:59;;;;;;;;;;;13.90;94.20;;;;;;5038276;28;19909;-74
2023/05/30 01:01:25;;;;;;;;;;;13.80;94.50;;;;;;5033327;28;19908;-74
2023/05/30 01:03:50;;;;;;;;;;;13.70;95.20;;;;;;5028653;28;19909;-74
2023/05/30 01:06:17;;;;;;;;;;;13.80;94.70;;;;;;5037148;28;19931;-73
2023/05/30 01:08:43;;;;;;;;;;;13.80;94.30;;;;;;5028285;28;19909;-74
2023/05/30 01:11:21;;;;;;;;;;;13.70;94.40;;;;;;5038838;28;19916;-75
2023/05/30 01:13:59;;;;;;;;;;;13.70;94.90;;;;;;5057540;28;19928;-74
2023/05/30 01:16:27;;;;;;;;;;;13.70;95.10;;;;;;5034525;28;20004;-74
2023/05/30 01:18:55;;;;;;;;;;;13.70;94.70;;;;;;5030449;28;19916;-75
2023/05/30 01:21:21;;;;;;;;;;;13.60;95.50;;;;;;5033734;28;20357;-74
2023/05/30 01:24:00;;;;;;;;;;;13.60;95.20;;;;;;5032666;28;19917;-75
2023/05/30 01:26:44;;;;;;;;;;;13.50;96.20;;;;;;5048457;28;20323;-74
2023/05/30 01:29:17;;;;;;;;;;;13.50;96.40;;;;;;5032997;28;19909;-74
2023/05/30 01:31:43;;;;;;;;;;;13.50;96.10;;;;;;5032007;28;19916;-75
2023/05/30 01:34:09;;;;;;;;;;;13.50;96.10;;;;;;5029150;28;19975;-75
2023/05/30 01:36:35;;;;;;;;;;;13.50;96.00;;;;;;5032153;28;19909;-75
2023/05/30 01:39:01;;;;;;;;;;;13.50;96.90;;;;;;5036445;28;19909;-74
2023/05/30 01:41:26;;;;;;;;;;;13.40;97.70;;;;;;5033315;28;19939;-75
2023/05/30 01:44:00;;;;;;;;;;;13.50;96.20;;;;;;5036480;28;20401;-74
2023/05/30 01:46:26;;;;;;;;;;;13.30;97.50;;;;;;5032966;28;19909;-74
2023/05/30 01:48:52;;;;;;;;;;;13.30;96.40;;;;;;5032803;28;19952;-74
2023/05/30 01:51:24;;;;;;;;;;;13.40;96.30;;;;;;5036982;28;19909;-75
2023/05/30 01:53:54;;;;;;;;;;;13.30;96.50;;;;;;5032457;28;20003;-74
2023/05/30 01:56:21;;;;;;;;;;;13.40;95.50;;;;;;5032624;28;19939;-74
2023/05/30 01:58:48;;;;;;;;;;;13.40;95.20;;;;;;5031172;28;19909;-74
2023/05/30 02:01:15;;;;;;;;;;;13.40;95.80;;;;;;5032165;28;19915;-74
2023/05/30 02:03:41;;;;;;;;;;;13.30;96.10;;;;;;5032418;28;19945;-75
2023/05/30 02:06:07;;;;;;;;;;;13.30;96.20;;;;;;5030621;28;20374;-74
2023/05/30 02:08:32;;;;;;;;;;;13.40;96.10;;;;;;5062757;28;19916;-74
2023/05/30 02:10:58;;;;;;;;;;;13.40;95.40;;;;;;5035152;28;19915;-74
2023/05/30 02:13:23;;;;;;;;;;;13.10;98.00;;;;;;5031675;28;20462;-75
2023/05/30 02:15:49;;;;;;;;;;;12.90;98.50;;;;;;5033698;28;19909;-74
2023/05/30 02:18:14;;;;;;;;;;;13.00;98.30;;;;;;5032510;28;19997;-74
2023/05/30 02:20:40;;;;;;;;;;;13.10;97.50;;;;;;5034904;28;19917;-74
2023/05/30 02:23:05;;;;;;;;;;;13.10;96.80;;;;;;5036494;28;19980;-75
2023/05/30 02:25:31;;;;;;;;;;;13.00;98.20;;;;;;5031236;28;19909;-73
2023/05/30 02:27:56;;;;;;;;;;;13.00;98.40;;;;;;5035032;28;19920;-74
2023/05/30 02:30:22;;;;;;;;;;;12.90;98.50;;;;;;5032850;28;19931;-75
2023/05/30 02:32:47;;;;;;;;;;;12.80;98.50;;;;;;5035902;28;19916;-74
2023/05/30 02:35:13;;;;;;;;;;;12.90;98.50;;;;;;5030361;28;20391;-75
2023/05/30 02:37:39;;;;;;;;;;;12.90;97.90;;;;;;5031172;28;20366;-75
2023/05/30 02:40:07;;;;;;;;;;;13.00;97.00;;;;;;5038101;28;19913;-76
2023/05/30 02:42:33;;;;;;;;;;;13.00;97.70;;;;;;5034731;28;19916;-75
2023/05/30 02:44:58;;;;;;;;;;;12.90;98.00;;;;;;5036583;28;19909;-74
2023/05/30 02:47:24;;;;;;;;;;;12.80;98.50;;;;;;5033729;28;19913;-76
2023/05/30 02:49:50;;;;;;;;;;;12.90;97.40;;;;;;5021818;28;20244;-75
2023/05/30 02:52:16;;;;;;;;;;;13.00;96.90;;;;;;5029250;28;19909;-75
2023/05/30 02:54:43;;;;;;;;;;;13.00;96.40;;;;;;5032898;28;19921;-75
2023/05/30 02:57:09;;;;;;;;;;;13.00;96.30;;;;;;5034269;28;19931;-75
2023/05/30 02:59:34;;;;;;;;;;;13.00;96.00;;;;;;5035580;28;19999;-75
2023/05/30 03:02:00;;;;;;;;;;;13.00;96.40;;;;;;5031125;28;19912;-75
2023/05/30 03:04:26;;;;;;;;;;;13.00;97.40;;;;;;5030760;28;19917;-75
2023/05/30 03:06:51;;;;;;;;;;;12.90;98.00;;;;;;5029886;28;19909;-75
2023/05/30 03:09:17;;;;;;;;;;;12.80;98.40;;;;;;5037517;28;19931;-75
2023/05/30 03:11:42;;;;;;;;;;;12.80;98.50;;;;;;5032916;28;19963;-75
2023/05/30 03:14:08;;;;;;;;;;;12.70;98.50;;;;;;5033478;28;19913;-74
2023/05/30 03:16:33;;;;;;;;;;;12.80;98.50;;;;;;5029900;28;19913;-74
2023/05/30 03:18:59;;;;;;;;;;;12.80;97.50;;;;;;5029860;28;19962;-74
2023/05/30 03:21:24;;;;;;;;;;;12.90;97.00;;;;;;5028782;28;19917;-74
2023/05/30 03:23:51;;;;;;;;;;;12.90;97.20;;;;;;5033254;28;19909;-74
2023/05/30 03:26:16;;;;;;;;;;;12.90;97.70;;;;;;5031362;28;19916;-75
2023/05/30 03:28:42;;;;;;;;;;;12.90;97.20;;;;;;5030132;28;19905;-74
2023/05/30 03:31:07;;;;;;;;;;;12.90;97.80;;;;;;5031190;28;20287;-74
2023/05/30 03:33:33;;;;;;;;;;;12.90;97.60;;;;;;5029776;28;19915;-74
2023/05/30 03:35:58;;;;;;;;;;;12.90;97.50;;;;;;5031150;28;20383;-75
2023/05/30 03:38:24;;;;;;;;;;;12.80;98.50;;;;;;5023788;28;19923;-75
2023/05/30 03:40:49;;;;;;;;;;;12.80;98.50;;;;;;5030425;28;19991;-74
2023/05/30 03:43:15;;;;;;;;;;;12.80;98.50;;;;;;5025440;28;19940;-75
2023/05/30 03:45:40;;;;;;;;;;;12.90;98.20;;;;;;5029084;28;19916;-74
2023/05/30 03:48:06;;;;;;;;;;;12.90;98.10;;;;;;5024040;28;19916;-75
2023/05/30 03:50:32;;;;;;;;;;;12.90;97.90;;;;;;5024160;28;19960;-73
2023/05/30 03:52:57;;;;;;;;;;;13.00;96.90;;;;;;5028107;28;20736;-75
2023/05/30 03:55:23;;;;;;;;;;;13.00;97.90;;;;;;5025460;28;19924;-75
2023/05/30 03:57:48;;;;;;;;;;;12.80;98.50;;;;;;5030787;28;20429;-75
2023/05/30 04:00:14;;;;;;;;;;;12.80;98.50;;;;;;5022969;28;19916;-76
2023/05/30 04:02:39;;;;;;;;;;;12.80;98.50;;;;;;5037145;28;19905;-76
2023/05/30 04:05:05;;;;;;;;;;;12.80;98.50;;;;;;5030732;28;20013;-76
2023/05/30 04:07:35;;;;;;;;;;;12.90;98.50;;;;;;5028456;28;20485;-75
2023/05/30 04:10:01;;;;;;;;;;;13.00;98.50;;;;;;5027143;28;19909;-76
2023/05/30 04:12:26;;;;;;;;;;;13.10;97.60;;;;;;5030171;28;19920;-76
2023/05/30 04:14:52;;;;;;;;;;;13.20;97.20;;;;;;5030230;28;19924;-76
2023/05/30 04:17:17;;;;;;;;;;;13.20;97.90;;;;;;5027832;28;19916;-76
2023/05/30 04:19:43;;;;;;;;;;;13.20;97.70;;;;;;5029194;28;19913;-75
2023/05/30 04:22:08;;;;;;;;;;;13.20;98.20;;;;;;5032853;28;20006;-77
2023/05/30 04:24:34;;;;;;;;;;;13.30;97.40;;;;;;5029862;28;19909;-76
2023/05/30 04:27:00;;;;;;;;;;;13.40;97.10;;;;;;5021819;28;19944;-76
2023/05/30 04:29:25;;;;;;;;;;;13.40;97.00;;;;;;5031206;28;19999;-76
2023/05/30 04:31:51;;;;;;;;;;;13.50;96.90;;;;;;5029004;28;19909;-77
2023/05/30 04:34:18;;;;;;;;;;;13.50;97.00;;;;;;5029546;28;19913;-77
2023/05/30 04:36:44;;;;;;;;;;;13.60;97.30;;;;;;5030399;28;19920;-76
2023/05/30 04:39:10;;;;;;;;;;;13.60;96.90;;;;;;5027171;28;20291;-75
2023/05/30 04:41:36;;;;;;;;;;;13.80;96.90;;;;;;5029187;28;19967;-75
2023/05/30 04:44:03;;;;;;;;;;;13.80;96.90;;;;;;5030396;28;20270;-77
2023/05/30 04:46:29;;;;;;;;;;;13.90;97.00;;;;;;5023705;28;19909;-78
2023/05/30 04:49:00;;;;;;;;;;;14.00;96.90;;;;;;5026461;28;19931;-78
2023/05/30 04:51:26;;;;;;;;;;;14.10;96.70;;;;;;5023002;28;19917;-76
2023/05/30 04:53:51;;;;;;;;;;;14.20;96.60;;;;;;5029425;28;19924;-78
2023/05/30 04:56:17;;;;;;;;;;;14.30;96.30;;;;;;5026971;28;19917;-79
2023/05/30 04:58:46;;;;;;;;;;;14.40;96.10;;;;;;5028731;28;19909;-78
2023/05/30 05:01:13;;;;;;;;;;;14.40;95.70;;;;;;5030783;28;19924;-78
2023/05/30 05:03:40;;;;;;;;;;;14.50;95.80;;;;;;5029316;28;19909;-77
2023/05/30 05:06:09;;;;;;;;;;;14.60;95.40;;;;;;5025363;28;19909;-78
2023/05/30 05:08:35;;;;;;;;;;;14.60;95.60;;;;;;5025007;28;20011;-78
2023/05/30 05:11:02;;;;;;;;;;;14.70;95.30;;;;;;5027416;28;20305;-78
2023/05/30 05:13:27;;;;;;;;;;;14.70;94.80;;;;;;5029743;28;19912;-78
2023/05/30 05:15:53;;;;;;;;;;;14.80;95.00;;;;;;5027133;28;19917;-78
2023/05/30 05:18:19;;;;;;;;;;;14.90;95.10;;;;;;5029494;28;19905;-78
2023/05/30 05:20:45;;;;;;;;;;;15.00;94.60;;;;;;5028494;28;19905;-77
2023/05/30 05:23:11;;;;;;;;;;;14.90;93.60;;;;;;5029891;28;19909;-77
2023/05/30 05:25:36;;;;;;;;;;;14.90;93.50;;;;;;5029594;28;19999;-78
2023/05/30 05:28:02;;;;;;;;;;;14.90;93.60;;;;;;5027203;28;19913;-77
2023/05/30 05:30:27;;;;;;;;;;;15.00;93.70;;;;;;5024347;28;19905;-78
2023/05/30 05:32:53;;;;;;;;;;;15.00;93.70;;;;;;5029538;28;19905;-78
2023/05/30 05:35:18;;;;;;;;;;;15.10;93.70;;;;;;5028808;28;19916;-78
2023/05/30 05:37:44;;;;;;;;;;;15.20;93.80;;;;;;5029438;28;19913;-77
2023/05/30 05:40:10;;;;;;;;;;;15.30;93.60;;;;;;5029650;28;19905;-78
2023/05/30 05:42:36;;;;;;;;;;;15.40;93.50;;;;;;5029400;28;19999;-78
2023/05/30 05:45:01;;;;;;;;;;;15.50;93.30;;;;;;5029435;28;20386;-77
2023/05/30 05:47:27;;;;;;;;;;;15.60;93.00;;;;;;5029235;28;19911;-77
2023/05/30 05:49:52;;;;;;;;;;;15.70;93.00;;;;;;5021663;28;19912;-78
2023/05/30 05:52:19;;;;;;;;;;;15.80;93.00;;;;;;5020594;28;19908;-78
2023/05/30 05:54:44;;;;;;;;;;;16.00;93.20;;;;;;5029426;28;20012;-78
2023/05/30 05:57:10;;;;;;;;;;;16.10;92.40;;;;;;5032310;28;19944;-77
2023/05/30 05:59:35;;;;;;;;;;;16.30;91.90;;;;;;5033055;28;19944;-77
2023/05/30 06:02:03;;;;;;;;;;;16.40;91.70;;;;;;5024370;28;19905;-78
2023/05/30 06:04:29;;;;;;;;;;;16.50;91.00;;;;;;5033048;28;19911;-78
2023/05/30 06:06:55;;;;;;;;;;;16.70;91.50;;;;;;5031211;28;20383;-77
2023/05/30 06:09:20;;;;;;;;;;;16.80;91.30;;;;;;5033081;28;19978;-78
2023/05/30 06:11:46;;;;;;;;;;;17.00;91.50;;;;;;5032670;28;19905;-78
2023/05/30 06:14:12;;;;;;;;;;;17.10;91.10;;;;;;5032873;28;19956;-78
2023/05/30 06:16:37;;;;;;;;;;;17.20;90.10;;;;;;5032271;28;19909;-78
2023/05/30 06:19:03;;;;;;;;;;;17.40;90.10;;;;;;5032802;28;20294;-78
2023/05/30 06:21:28;;;;;;;;;;;17.50;90.20;;;;;;5032384;28;19912;-78
2023/05/30 06:23:54;;;;;;;;;;;17.70;89.90;;;;;;5032778;28;20498;-78
2023/05/30 06:26:20;;;;;;;;;;;17.80;89.00;;;;;;5031123;28;20422;-78
2023/05/30 06:28:49;;;;;;;;;;;17.90;86.90;;;;;;5025489;28;19932;-78
2023/05/30 06:31:15;;;;;;;;;;;18.00;88.20;;;;;;5031322;28;19905;-78
2023/05/30 06:33:40;;;;;;;;;;;18.10;87.90;;;;;;5032589;28;19905;-78
2023/05/30 06:36:07;;;;;;;;;;;18.20;87.00;;;;;;5030104;28;19979;-78
2023/05/30 06:38:32;;;;;;;;;;;18.40;87.20;;;;;;5025823;28;19917;-78
2023/05/30 06:40:58;;;;;;;;;;;18.50;86.70;;;;;;5030030;28;19963;-78
2023/05/30 06:43:23;;;;;;;;;;;18.60;86.50;;;;;;5032527;28;19943;-77
2023/05/30 06:45:49;;;;;;;;;;;18.70;86.80;;;;;;5031501;28;20339;-78
2023/05/30 06:48:14;;;;;;;;;;;18.70;86.30;;;;;;5031036;28;19908;-77
2023/05/30 06:50:40;;;;;;;;;;;18.80;86.00;;;;;;5031915;28;19944;-77
2023/05/30 06:53:06;;;;;;;;;;;18.90;85.50;;;;;;5032925;28;19966;-77
2023/05/30 06:55:31;;;;;;;;;;;18.90;85.60;;;;;;5032775;28;20388;-77
2023/05/30 06:57:57;;;;;;;;;;;19.00;85.30;;;;;;5030739;28;19905;-79
2023/05/30 07:00:22;;;;;;;;;;;19.00;85.70;;;;;;5032197;28;19913;-75
2023/05/30 07:02:48;;;;;;;;;;;19.10;86.40;;;;;;5032032;28;19936;-75
2023/05/30 07:05:13;;;;;;;;;;;19.20;85.30;;;;;;5031616;28;19909;-75
2023/05/30 07:07:41;;;;;;;;;;;19.20;85.50;;;;;;5030087;28;19916;-75
2023/05/30 07:10:07;;;;;;;;;;;19.30;85.60;;;;;;5031518;28;19905;-75
2023/05/30 07:12:33;;;;;;;;;;;19.40;85.70;;;;;;5031682;28;19905;-75
2023/05/30 07:14:58;;;;;;;;;;;19.40;84.20;;;;;;5035208;28;19917;-75
2023/05/30 07:17:24;;;;;;;;;;;19.40;84.10;;;;;;5028545;28;19913;-76
2023/05/30 07:19:49;;;;;;;;;;;19.40;83.80;;;;;;5023691;28;20302;-76
2023/05/30 07:22:15;;;;;;;;;;;19.50;84.20;;;;;;5030152;28;20049;-78
2023/05/30 07:24:40;;;;;;;;;;;19.60;83.30;;;;;;5031264;28;19916;-78
2023/05/30 07:27:06;;;;;;;;;;;19.70;82.70;;;;;;5027407;28;19909;-76
2023/05/30 07:29:31;;;;;;;;;;;19.80;82.60;;;;;;5042509;28;19910;-78
2023/05/30 07:31:57;;;;;;;;;;;19.90;82.40;;;;;;5030681;28;20362;-77
2023/05/30 07:34:22;;;;;;;;;;;20.10;81.60;;;;;;5029123;28;19921;-78
2023/05/30 07:36:48;;;;;;;;;;;20.20;81.40;;;;;;5039854;28;20459;-78
2023/05/30 07:39:13;;;;;;;;;;;20.30;81.50;;;;;;5032053;28;19909;-77
2023/05/30 07:41:39;;;;;;;;;;;20.50;80.50;;;;;;5033743;28;20302;-78
2023/05/30 07:44:04;;;;;;;;;;;20.60;80.30;;;;;;5039588;28;20563;-79
2023/05/30 07:46:30;;;;;;;;;;;20.70;80.10;;;;;;5035691;28;20458;-77
2023/05/30 07:48:56;;;;;;;;;;;20.90;79.40;;;;;;5030893;28;19913;-77
2023/05/30 07:51:22;;;;;;;;;;;21.00;80.30;;;;;;5032515;28;20000;-77
2023/05/30 07:53:47;;;;;;;;;;;21.10;80.20;;;;;;5034471;28;19939;-78
2023/05/30 07:56:13;;;;;;;;;;;21.30;79.80;;;;;;5036676;28;19913;-78
2023/05/30 07:58:38;;;;;;;;;;;21.30;79.00;;;;;;5037067;28;19984;-77
2023/05/30 08:01:04;;;;;;;;;;;21.30;78.90;;;;;;5029854;28;19909;-77
2023/05/30 08:03:30;;;;;;;;;;;21.40;77.60;;;;;;5036309;28;19915;-77
2023/05/30 08:05:56;;;;;;;;;;;21.60;77.30;;;;;;5027437;28;19975;-77
2023/05/30 08:08:21;;;;;;;;;;;21.70;76.90;;;;;;5033409;28;20000;-77
2023/05/30 08:10:47;;;;;;;;;;;21.80;76.50;;;;;;5039120;28;19917;-77
2023/05/30 08:13:13;;;;;;;;;;;21.90;76.90;;;;;;5034543;28;19963;-77
2023/05/30 08:15:39;;;;;;;;;;;22.00;76.50;;;;;;5025685;28;19924;-77
2023/05/30 08:18:04;;;;;;;;;;;22.10;76.40;;;;;;5032556;28;20306;-76
2023/05/30 08:20:30;;;;;;;;;;;22.20;75.60;;;;;;5033216;28;19908;-77
2023/05/30 08:22:55;;;;;;;;;;;22.30;76.00;;;;;;5033496;28;19917;-77
2023/05/30 08:25:23;;;;;;;;;;;22.30;74.80;;;;;;5045528;28;19917;-77
2023/05/30 08:27:53;;;;;;;;;;;22.40;75.10;;;;;;5038277;28;19913;-76
2023/05/30 08:30:18;;;;;;;;;;;22.50;74.30;;;;;;5046468;28;20394;-77
2023/05/30 08:32:45;;;;;;;;;;;22.60;73.50;;;;;;5037621;28;19920;-76
2023/05/30 08:35:10;;;;;;;;;;;22.60;73.10;;;;;;5031553;28;19917;-76
2023/05/30 08:37:36;;;;;;;;;;;22.70;73.30;;;;;;5029629;28;20493;-76
2023/05/30 08:40:02;;;;;;;;;;;22.80;74.20;;;;;;5028908;28;19905;-76
2023/05/30 08:42:28;;;;;;;;;;;23.00;74.10;;;;;;5030022;28;20375;-77
2023/05/30 08:44:53;;;;;;;;;;;23.10;73.80;;;;;;5030407;28;20002;-77
2023/05/30 08:47:20;;;;;;;;;;;23.30;73.60;;;;;;5029468;28;20359;-77
2023/05/30 08:49:46;;;;;;;;;;;23.40;73.50;;;;;;5024309;28;19905;-75
2023/05/30 08:52:13;;;;;;;;;;;23.50;72.80;;;;;;5031753;28;19911;-75
2023/05/30 08:54:46;;;;;;;;;;;23.70;72.60;;;;;;5029806;28;20120;-75
2023/05/30 08:57:17;;;;;;;;;;;23.80;72.90;;;;;;5028908;28;19909;-76
2023/05/30 08:59:43;;;;;;;;;;;23.80;71.40;;;;;;5028072;28;19917;-77
2023/05/30 09:02:10;;;;;;;;;;;23.90;71.20;;;;;;5023330;28;19916;-76
2023/05/30 09:04:36;;;;;;;;;;;23.90;71.30;;;;;;5037537;28;19999;-75
2023/05/30 09:07:02;;;;;;;;;;;24.00;71.70;;;;;;5026588;28;19993;-77
2023/05/30 09:09:29;;;;;;;;;;;24.10;71.50;;;;;;5026900;28;20048;-76
2023/05/30 09:11:55;;;;;;;;;;;24.20;71.70;;;;;;5016383;28;19913;-77
2023/05/30 09:14:20;;;;;;;;;;;24.20;71.10;;;;;;5025177;28;19944;-76
2023/05/30 09:16:46;;;;;;;;;;;24.30;71.00;;;;;;5028386;28;19917;-77
2023/05/30 09:19:11;;;;;;;;;;;24.30;70.50;;;;;;5028344;28;19905;-76
2023/05/30 09:21:37;;;;;;;;;;;24.20;71.00;;;;;;5031286;28;19944;-77
2023/05/30 09:24:06;;;;;;;;;;;24.20;70.50;;;;;;5020077;28;19992;-76
2023/05/30 09:26:32;;;;;;;;;;;24.30;71.00;;;;;;5028020;28;20004;-77
2023/05/30 09:29:09;;;;;;;;;;;24.30;70.50;;;;;;5027896;28;19905;-75
2023/05/30 09:31:35;;;;;;;;;;;24.40;69.70;;;;;;5028962;28;20365;-75
2023/05/30 09:34:01;;;;;;;;;;;24.60;69.50;;;;;;5033139;28;20275;-76
2023/05/30 09:36:28;;;;;;;;;;;24.50;69.40;;;;;;5030633;28;19923;-76
2023/05/30 09:38:53;;;;;;;;;;;24.50;70.10;;;;;;5033423;28;21352;-78
2023/05/30 09:41:20;;;;;;;;;;;24.40;70.70;;;;;;5033727;28;19983;-79
2023/05/30 09:43:52;;;;;;;;;;;24.50;71.00;;;;;;5038418;28;19909;-78
2023/05/30 09:46:19;;;;;;;;;;;24.60;70.30;;;;;;5031788;28;19955;-78
2023/05/30 09:48:45;;;;;;;;;;;24.60;70.80;;;;;;5032945;28;19997;-78
2023/05/30 09:51:11;;;;;;;;;;;24.70;70.50;;;;;;5031277;28;20047;-78
2023/05/30 09:53:36;;;;;;;;;;;24.80;70.30;;;;;;5032998;28;20387;-78
2023/05/30 09:56:03;;;;;;;;;;;24.90;70.90;;;;;;5032346;28;19940;-78
2023/05/30 09:58:28;;;;;;;;;;;24.90;70.70;;;;;;5033247;28;20008;-77
2023/05/30 10:00:55;;;;;;;;;;;25.00;70.00;;;;;;5031036;28;19984;-77
2023/05/30 10:03:21;;;;;;;;;;;25.20;68.90;;;;;;5031863;28;19944;-77
2023/05/30 10:05:47;;;;;;;;;;;25.30;68.30;;;;;;5032303;28;19970;-77
2023/05/30 10:08:13;;;;;;;;;;;25.40;68.50;;;;;;5032572;28;19917;-77
2023/05/30 10:10:39;;;;;;;;;;;25.60;68.20;;;;;;5033932;28;20398;-79
2023/05/30 10:13:05;;;;;;;;;;;25.70;68.10;;;;;;5033287;28;19909;-79
2023/05/30 10:15:31;;;;;;;;;;;26.00;67.50;;;;;;5035853;28;20434;-79
2023/05/30 10:17:59;;;;;;;;;;;26.20;66.80;;;;;;5032629;28;19909;-79
2023/05/30 10:20:26;;;;;;;;;;;26.50;66.80;;;;;;5029802;28;19909;-80
2023/05/30 10:22:54;;;;;;;;;;;26.70;65.80;;;;;;5031728;28;20006;-78
2023/05/30 10:25:21;;;;;;;;;;;26.90;65.80;;;;;;5031135;28;20504;-77
2023/05/30 10:27:53;;;;;;;;;;;27.10;65.50;;;;;;5032852;28;19909;-78
2023/05/30 10:30:22;;;;;;;;;;;27.20;65.30;;;;;;5029192;28;20233;-77
2023/05/30 10:32:50;;;;;;;;;;;27.30;65.80;;;;;;5028999;28;20398;-77
2023/05/30 10:35:16;;;;;;;;;;;27.40;64.80;;;;;;5032176;28;19924;-77
2023/05/30 10:37:42;;;;;;;;;;;27.50;64.70;;;;;;5029193;28;19917;-77
2023/05/30 10:40:20;;;;;;;;;;;27.50;64.20;;;;;;5032242;28;19905;-77
2023/05/30 10:43:06;;;;;;;;;;;27.50;64.10;;;;;;5029971;28;19905;-77
2023/05/30 10:45:50;;;;;;;;;;;27.50;64.10;;;;;;5020151;28;19952;-77
2023/05/30 10:48:19;;;;;;;;;;;27.40;63.70;;;;;;5025535;28;20000;-77
2023/05/30 10:50:47;;;;;;;;;;;27.40;64.50;;;;;;5031541;28;19905;-77
2023/05/30 10:53:16;;;;;;;;;;;27.60;64.10;;;;;;5031999;28;19905;-77
2023/05/30 10:55:42;;;;;;;;;;;27.80;64.20;;;;;;5031434;28;19917;-77
2023/05/30 10:58:27;;;;;;;;;;;28.20;63.50;;;;;;5035121;28;20294;-77
2023/05/30 11:00:52;;;;;;;;;;;28.60;62.40;;;;;;5022324;28;19948;-77
2023/05/30 11:03:36;;;;;;;;;;;29.00;61.70;;;;;;5031369;28;19955;-77
2023/05/30 11:06:02;;;;;;;;;;;29.30;61.20;;;;;;5031308;28;19937;-77
2023/05/30 11:08:28;;;;;;;;;;;29.50;60.80;;;;;;5031810;28;19952;-77
2023/05/30 11:10:57;;;;;;;;;;;29.50;60.60;;;;;;5031700;28;19912;-77
2023/05/30 11:13:25;;;;;;;;;;;29.40;60.50;;;;;;5031331;28;19916;-77
2023/05/30 11:15:51;;;;;;;;;;;29.10;60.60;;;;;;5031542;28;19913;-77
2023/05/30 11:18:17;;;;;;;;;;;28.90;61.10;;;;;;5031257;28;19928;-77
2023/05/30 11:20:52;;;;;;;;;;;28.70;61.40;;;;;;5030968;28;20129;-77
2023/05/30 11:23:18;;;;;;;;;;;28.70;62.20;;;;;;5031543;28;20394;-76
2023/05/30 11:25:44;;;;;;;;;;;28.90;62.30;;;;;;5030758;28;19954;-76
2023/05/30 11:28:13;;;;;;;;;;;29.10;60.20;;;;;;5031396;28;19909;-76
2023/05/30 11:30:46;;;;;;;;;;;29.40;62.00;;;;;;5030907;28;19951;-77
2023/05/30 11:33:12;;;;;;;;;;;29.90;58.50;;;;;;5031290;28;19955;-77
2023/05/30 11:35:38;;;;;;;;;;;30.20;59.90;;;;;;5031301;28;19913;-77
2023/05/30 11:38:06;;;;;;;;;;;30.70;58.40;;;;;;5023872;28;19917;-77
2023/05/30 11:40:32;;;;;;;;;;;31.20;57.30;;;;;;5031076;28;19925;-77
2023/05/30 11:42:58;;;;;;;;;;;31.60;54.70;;;;;;5031242;28;19983;-77
2023/05/30 11:45:24;;;;;;;;;;;31.80;56.30;;;;;;5030999;28;20013;-77
2023/05/30 11:47:49;;;;;;;;;;;32.10;55.50;;;;;;5030725;28;20429;-78
2023/05/30 11:50:15;;;;;;;;;;;32.50;54.30;;;;;;5025041;28;19912;-76
2023/05/30 11:52:41;;;;;;;;;;;33.00;53.80;;;;;;5030393;28;20000;-76
2023/05/30 11:55:06;;;;;;;;;;;33.30;53.80;;;;;;5029318;28;19920;-75
2023/05/30 11:57:32;;;;;;;;;;;33.40;54.00;;;;;;5029389;28;19905;-76
2023/05/30 11:59:58;;;;;;;;;;;33.60;53.60;;;;;;5030404;28;19939;-77
2023/05/30 12:02:27;;;;;;;;;;;33.60;53.30;;;;;;5024008;28;19905;-76
2023/05/30 12:05:00;;;;;;;;;;;33.80;52.80;;;;;;5030606;28;20003;-76
2023/05/30 12:07:26;;;;;;;;;;;34.10;52.70;;;;;;5030644;28;20395;-76
2023/05/30 12:09:52;;;;;;;;;;;34.40;51.30;;;;;;5030426;28;19955;-76
2023/05/30 12:12:17;;;;;;;;;;;34.70;51.60;;;;;;5029814;28;19905;-77
2023/05/30 12:14:47;;;;;;;;;;;35.00;51.10;;;;;;5030271;28;19921;-77
2023/05/30 12:17:21;;;;;;;;;;;35.10;50.80;;;;;;5025182;28;19966;-77
2023/05/30 12:19:49;;;;;;;;;;;34.90;52.30;;;;;;5030077;28;20354;-76
2023/05/30 12:22:18;;;;;;;;;;;35.00;51.80;;;;;;5030397;28;19905;-76
2023/05/30 12:24:46;;;;;;;;;;;35.20;51.20;;;;;;5029196;28;19974;-77
2023/05/30 12:27:17;;;;;;;;;;;35.40;50.00;;;;;;5030161;28;19909;-76
2023/05/30 12:29:43;;;;;;;;;;;35.30;49.10;;;;;;5028353;28;19909;-77
2023/05/30 12:32:09;;;;;;;;;;;35.30;49.30;;;;;;5030032;28;19911;-77
2023/05/30 12:34:38;;;;;;;;;;;35.50;48.40;;;;;;5030004;28;19917;-77
2023/05/30 12:37:08;;;;;;;;;;;35.70;48.50;;;;;;5024080;28;19956;-76
2023/05/30 12:39:33;;;;;;;;;;;35.90;49.00;;;;;;5030195;28;20309;-76
2023/05/30 12:42:06;;;;;;;;;;;36.20;48.00;;;;;;5030107;28;19905;-78
2023/05/30 12:44:32;;;;;;;;;;;36.30;45.90;;;;;;5018993;28;19912;-76
2023/05/30 12:47:01;;;;;;;;;;;36.10;46.50;;;;;;5029267;28;19916;-76
2023/05/30 12:49:26;;;;;;;;;;;35.90;47.50;;;;;;5029858;28;20280;-76
2023/05/30 12:51:52;;;;;;;;;;;35.90;46.80;;;;;;5029710;28;19912;-76
2023/05/30 12:54:23;;;;;;;;;;;36.00;48.10;;;;;;5030099;28;19913;-76
2023/05/30 12:56:49;;;;;;;;;;;36.20;47.30;;;;;;5029916;28;19909;-77
2023/05/30 12:59:14;;;;;;;;;;;36.40;47.90;;;;;;5028827;28;19912;-76
2023/05/30 13:01:40;;;;;;;;;;;36.80;46.60;;;;;;5029459;28;19905;-76
2023/05/30 13:04:05;;;;;;;;;;;36.90;46.90;;;;;;5030146;28;19905;-75
2023/05/30 13:06:31;;;;;;;;;;;37.10;46.90;;;;;;5033841;28;20292;-76
2023/05/30 13:08:57;;;;;;;;;;;37.20;47.20;;;;;;5034699;28;20015;-76
2023/05/30 13:11:22;;;;;;;;;;;37.20;46.10;;;;;;5033726;28;19964;-77
2023/05/30 13:13:48;;;;;;;;;;;37.00;47.40;;;;;;5033731;28;19995;-76
2023/05/30 13:16:13;;;;;;;;;;;36.80;45.80;;;;;;5032173;28;19901;-76
2023/05/30 13:18:39;;;;;;;;;;;36.60;45.30;;;;;;5032811;28;19917;-78
2023/05/30 13:21:05;;;;;;;;;;;36.70;45.50;;;;;;5028630;28;19920;-79
2023/05/30 13:23:31;;;;;;;;;;;36.90;45.90;;;;;;5030123;28;19908;-79
2023/05/30 13:25:56;;;;;;;;;;;37.20;45.60;;;;;;5035770;28;19913;-79
2023/05/30 13:28:22;;;;;;;;;;;37.50;45.40;;;;;;5033957;28;19909;-80
2023/05/30 13:30:47;;;;;;;;;;;37.90;45.40;;;;;;5032995;28;19949;-78
2023/05/30 13:33:13;;;;;;;;;;;38.20;44.30;;;;;;5033479;28;19956;-79
2023/05/30 13:35:39;;;;;;;;;;;38.40;44.90;;;;;;5034000;28;19925;-79
2023/05/30 13:38:05;;;;;;;;;;;38.60;43.00;;;;;;5030395;28;20370;-81
2023/05/30 13:40:30;;;;;;;;;;;38.40;42.70;;;;;;5029831;28;19917;-79
2023/05/30 13:42:56;;;;;;;;;;;38.10;42.50;;;;;;5030337;28;19913;-80
2023/05/30 13:45:21;;;;;;;;;;;37.60;42.80;;;;;;5030701;28;19905;-79
2023/05/30 13:47:47;;;;;;;;;;;37.50;44.10;;;;;;5031078;28;20371;-80
2023/05/30 13:50:13;;;;;;;;;;;37.50;45.00;;;;;;5030943;28;19913;-79
2023/05/30 13:52:39;;;;;;;;;;;37.50;43.40;;;;;;5029905;28;20008;-79
2023/05/30 13:55:05;;;;;;;;;;;36.90;43.90;;;;;;5030934;28;20562;-80
2023/05/30 13:57:31;;;;;;;;;;;36.30;45.30;;;;;;5037998;28;19987;-79
2023/05/30 13:59:56;;;;;;;;;;;36.00;45.40;;;;;;5038217;28;20012;-79
2023/05/30 14:02:22;;;;;;;;;;;35.70;47.10;;;;;;5044378;28;19915;-79
2023/05/30 14:04:47;;;;;;;;;;;35.50;46.00;;;;;;5032353;28;20406;-79
2023/05/30 14:07:13;;;;;;;;;;;35.30;47.50;;;;;;5038130;28;19916;-79
2023/05/30 14:09:38;;;;;;;;;;;35.40;47.30;;;;;;5034274;28;19913;-79
2023/05/30 14:12:07;;;;;;;;;;;35.60;47.50;;;;;;5032899;28;19905;-79